Archival Weather

Chicago O'Hare International

Chicago, Illinois (KORD)

Report from: Saturday, March 5, 2022 10:51 AM CST
Current time: Saturday, February 4, 2023 10:12 PM CST

Current weather
Weather history
Weather forecast

Temperature15.6°C (60.1°F)
Dew point3.9°C (39.0°F)
Winds 15 kts (7.7 m/s, 17.3 mph) South-Southwest (200°)
Wind gusts 25 kts (12.9 m/s, 28.8 mph)
Visibility10 mi. (16.1 km)
Clouds Few clouds 6,500 ft. (1,981 m)
Ceiling: Broken clouds 8,000 ft. (2,438 m)
Broken clouds 15,000 ft. (4,572 m)
Broken clouds 25,000 ft. (7,620 m)
Altimeter29.87 in.Hg (1012 mB)
Relative humidity46 %
Density altitude250 ft. (76 m)
Sea-level pressure101.2 kPa (1012 mB, 29.87 in.Hg)
Remarks System requires maintenance
Automated weather observing station with precipitation discriminator
Flight conditions Visual Meteorological Conditions
Raw dataKORD 051651Z 20015G25KT 10SM FEW065 BKN080 BKN150 BKN250 16/04 A2987 RMK AO2 SLP115 T01560039 $
An unhandled exception has occurred. See browser dev tools for details. Reload 🗙